Time;durP1;ratioP1;P1;durP2;ratioP2;P2;SDS_P1;SDS_P2;PMS_P1;PMS_P2;Temp;Humidity;BMP_temperature;BMP_pressure;BME280_temperature;BME280_humidity;BME280_pressure;Samples;Min_cycle;Max_cycle;Signal;HPM_P1;HPM_P2
2022/10/31 00:02:22;;;;;;;11.47;5.93;;;13.30;99.90;;;;;;4992276;28;20298;-87
2022/10/31 00:04:48;;;;;;;6.67;4.67;;;13.20;99.90;;;;;;5025904;28;20318;-87
2022/10/31 00:07:14;;;;;;;7.70;4.50;;;13.20;99.90;;;;;;4992409;28;20683;-86
2022/10/31 00:09:39;;;;;;;8.43;4.63;;;13.10;99.90;;;;;;4991606;28;20305;-88
2022/10/31 00:12:05;;;;;;;11.17;4.63;;;13.10;99.90;;;;;;4991964;28;20228;-87
2022/10/31 00:14:31;;;;;;;8.30;4.73;;;13.10;99.90;;;;;;4975547;28;20198;-87
2022/10/31 00:16:56;;;;;;;8.77;6.17;;;13.00;99.90;;;;;;4992863;28;20274;-86
2022/10/31 00:19:22;;;;;;;8.87;5.40;;;13.00;99.90;;;;;;5025782;28;20307;-85
2022/10/31 00:21:48;;;;;;;6.80;5.30;;;13.00;99.90;;;;;;4994769;28;20357;-86
2022/10/31 00:24:14;;;;;;;8.80;6.23;;;13.00;99.90;;;;;;4991989;28;20261;-86
2022/10/31 00:26:39;;;;;;;10.27;5.93;;;12.90;99.90;;;;;;5007386;28;21055;-89
2022/10/31 00:29:05;;;;;;;6.93;5.10;;;12.90;99.90;;;;;;4992066;28;20186;-87
2022/10/31 00:31:31;;;;;;;7.70;5.53;;;12.80;99.90;;;;;;5007732;28;20719;-87
2022/10/31 00:33:57;;;;;;;10.17;6.87;;;12.80;99.90;;;;;;5025877;28;20237;-87
2022/10/31 00:36:23;;;;;;;11.83;6.00;;;12.90;99.90;;;;;;5008257;28;20215;-86
2022/10/31 00:38:49;;;;;;;8.93;6.00;;;12.90;99.90;;;;;;4996015;28;20270;-87
2022/10/31 00:41:16;;;;;;;8.80;5.23;;;12.90;99.90;;;;;;5026038;28;20613;-86
2022/10/31 00:43:43;;;;;;;14.40;5.57;;;12.90;99.90;;;;;;5025073;28;20230;-87
2022/10/31 00:46:10;;;;;;;7.83;4.93;;;12.90;99.90;;;;;;5007645;28;20252;-87
2022/10/31 00:48:35;;;;;;;9.70;5.93;;;12.90;99.90;;;;;;5011932;28;20219;-87
2022/10/31 00:51:01;;;;;;;10.17;5.70;;;12.90;99.90;;;;;;4984219;28;20225;-88
2022/10/31 00:53:27;;;;;;;7.63;4.47;;;13.00;99.90;;;;;;4992124;28;20231;-87
2022/10/31 00:55:53;;;;;;;12.37;5.37;;;13.10;99.90;;;;;;4978057;28;20218;-87
2022/10/31 00:58:18;;;;;;;13.93;6.70;;;13.10;99.90;;;;;;5011088;28;20223;-88
2022/10/31 01:00:46;;;;;;;9.87;5.57;;;13.10;99.90;;;;;;4993942;28;20788;-88
2022/10/31 01:03:12;;;;;;;7.43;5.47;;;13.20;99.90;;;;;;5024242;28;20219;-87
2022/10/31 01:05:37;;;;;;;7.83;6.40;;;13.20;99.90;;;;;;4991256;28;20332;-89
2022/10/31 01:08:03;;;;;;;6.90;5.13;;;13.20;99.90;;;;;;4983371;28;20660;-87
2022/10/31 01:10:29;;;;;;;8.27;5.23;;;13.30;99.90;;;;;;5007081;28;20225;-87
2022/10/31 01:12:54;;;;;;;14.93;5.90;;;13.20;99.90;;;;;;4990559;28;20641;-86
2022/10/31 01:15:22;;;;;;;9.50;6.87;;;13.20;99.90;;;;;;4990859;28;20218;-86
2022/10/31 01:17:48;;;;;;;9.93;8.10;;;13.20;99.90;;;;;;5007341;28;20191;-87
2022/10/31 01:20:14;;;;;;;8.30;5.10;;;13.20;99.90;;;;;;4991333;28;20194;-84
2022/10/31 01:22:40;;;;;;;6.37;5.07;;;13.20;99.90;;;;;;5006606;28;20299;-87
2022/10/31 01:25:07;;;;;;;10.60;4.63;;;13.10;99.90;;;;;;5025237;28;20317;-87
2022/10/31 01:27:33;;;;;;;18.27;5.77;;;13.10;99.90;;;;;;5024791;28;20227;-88
2022/10/31 01:29:58;;;;;;;9.93;5.47;;;13.10;99.90;;;;;;4974581;28;20260;-85
2022/10/31 01:32:24;;;;;;;10.93;4.97;;;13.00;99.90;;;;;;5007741;28;20584;-89
2022/10/31 01:34:50;;;;;;;9.27;5.40;;;13.00;99.90;;;;;;4993083;28;20218;-85
2022/10/31 01:37:16;;;;;;;7.70;5.07;;;13.00;99.90;;;;;;4991175;28;20222;-88
2022/10/31 01:39:42;;;;;;;7.17;4.93;;;13.00;99.90;;;;;;5025097;28;20222;-86
2022/10/31 01:42:18;;;;;;;9.50;6.07;;;13.00;99.90;;;;;;5024507;28;20757;-88
2022/10/31 01:44:51;;;;;;;8.13;5.17;;;13.00;99.90;;;;;;5008885;28;20592;-88
2022/10/31 01:47:41;;;;;;;5.50;4.23;;;13.00;99.90;;;;;;5029176;28;20237;-86
2022/10/31 01:50:31;;;;;;;9.07;5.90;;;13.00;99.90;;;;;;5004657;28;20250;-85
2022/10/31 01:52:58;;;;;;;10.67;6.10;;;13.00;99.90;;;;;;5005294;28;20211;-87
2022/10/31 01:55:29;;;;;;;8.10;4.43;;;13.00;99.90;;;;;;4992492;28;20218;-85
2022/10/31 01:57:59;;;;;;;6.33;4.80;;;13.00;99.90;;;;;;5005357;28;20226;-87
2022/10/31 02:00:25;;;;;;;8.53;5.63;;;13.00;99.90;;;;;;5005295;28;20230;-88
2022/10/31 02:02:51;;;;;;;8.47;5.83;;;13.00;99.90;;;;;;4970968;28;20532;-87
2022/10/31 02:05:24;;;;;;;5.00;4.07;;;13.00;99.90;;;;;;4987528;28;20194;-87
2022/10/31 02:08:20;;;;;;;10.10;5.53;;;13.00;99.90;;;;;;5027246;28;20302;-87
2022/10/31 02:10:46;;;;;;;9.43;5.53;;;13.00;99.90;;;;;;5004352;28;20215;-87
2022/10/31 02:13:12;;;;;;;9.87;6.10;;;12.90;99.90;;;;;;4995821;28;20258;-85
2022/10/31 02:15:40;;;;;;;12.33;5.80;;;12.90;99.90;;;;;;5008398;28;20273;-86
2022/10/31 02:18:07;;;;;;;12.63;6.60;;;12.90;99.90;;;;;;4990442;28;20227;-88
2022/10/31 02:20:58;;;;;;;11.07;6.67;;;12.80;99.90;;;;;;4990092;28;20199;-86
2022/10/31 02:23:53;;;;;;;12.43;6.87;;;12.90;99.90;;;;;;5000984;28;20231;-86
2022/10/31 02:26:40;;;;;;;12.40;7.03;;;12.90;99.90;;;;;;4991607;28;20219;-88
2022/10/31 02:29:29;;;;;;;10.27;7.57;;;12.80;99.90;;;;;;5007878;28;20560;-88
2022/10/31 02:32:07;;;;;;;12.93;6.53;;;12.90;99.90;;;;;;5023211;28;20238;-87
2022/10/31 02:34:53;;;;;;;10.63;6.87;;;12.90;99.90;;;;;;5014490;28;20218;-85
2022/10/31 02:37:31;;;;;;;15.97;7.90;;;12.90;99.90;;;;;;4975838;28;20246;-88
2022/10/31 02:40:07;;;;;;;13.53;8.23;;;12.80;99.90;;;;;;5020541;28;20229;-87
2022/10/31 02:42:53;;;;;;;14.50;7.03;;;12.80;99.90;;;;;;5009260;28;20234;-88
2022/10/31 02:45:35;;;;;;;9.10;6.80;;;12.80;99.90;;;;;;5025294;28;20222;-87
2022/10/31 02:48:08;;;;;;;12.67;7.90;;;12.80;99.90;;;;;;5013568;28;20683;-89
2022/10/31 02:50:37;;;;;;;11.73;7.10;;;12.80;99.90;;;;;;5012684;28;20210;-87
2022/10/31 02:53:03;;;;;;;11.17;6.57;;;12.80;99.90;;;;;;5028520;28;20557;-87
2022/10/31 02:55:29;;;;;;;11.07;6.73;;;12.70;99.90;;;;;;5009756;28;20689;-86
2022/10/31 02:58:17;;;;;;;13.77;7.83;;;12.70;99.90;;;;;;4998805;28;20224;-87
2022/10/31 03:01:12;;;;;;;10.17;7.40;;;12.60;99.90;;;;;;5000360;28;20644;-87
2022/10/31 03:04:00;;;;;;;14.20;7.27;;;12.60;99.90;;;;;;5008897;28;20215;-86
2022/10/31 03:06:28;;;;;;;10.27;7.63;;;12.60;99.90;;;;;;5023225;28;20310;-85
2022/10/31 03:09:09;;;;;;;14.20;7.33;;;12.60;99.90;;;;;;5020287;28;20353;-86
2022/10/31 03:12:14;;;;;;;12.83;6.80;;;12.60;99.90;;;;;;5024326;28;20213;-86
2022/10/31 03:14:53;;;;;;;12.03;7.60;;;12.60;99.90;;;;;;5024202;28;20277;-87
2022/10/31 03:17:33;;;;;;;13.73;8.30;;;12.60;99.90;;;;;;5021578;28;20183;-87
2022/10/31 03:20:03;;;;;;;12.20;7.53;;;12.50;99.90;;;;;;5020157;28;20672;-87
2022/10/31 03:22:31;;;;;;;14.03;7.83;;;12.50;99.90;;;;;;5010066;28;20657;-88
2022/10/31 03:24:57;;;;;;;12.63;6.63;;;12.50;99.90;;;;;;4988198;28;20215;-89
2022/10/31 03:27:29;;;;;;;15.17;8.07;;;12.50;99.90;;;;;;4990070;28;20218;-85
2022/10/31 03:29:57;;;;;;;10.40;6.80;;;12.50;99.90;;;;;;5027744;28;20214;-90
2022/10/31 03:32:28;;;;;;;13.73;6.33;;;12.50;99.90;;;;;;5029561;28;20692;-88
2022/10/31 03:34:58;;;;;;;10.67;7.13;;;12.50;99.90;;;;;;5031958;28;20241;-87
2022/10/31 03:37:27;;;;;;;15.07;9.60;;;12.50;99.90;;;;;;5014057;28;20309;-88
2022/10/31 03:39:54;;;;;;;13.73;7.70;;;12.50;99.90;;;;;;5030587;28;20246;-89
2022/10/31 03:42:25;;;;;;;17.13;7.67;;;12.50;99.90;;;;;;5016212;28;20821;-89
2022/10/31 03:45:03;;;;;;;11.20;7.13;;;12.50;99.90;;;;;;5005603;28;20280;-87
2022/10/31 03:47:29;;;;;;;10.83;6.73;;;12.40;99.90;;;;;;5024297;28;20174;-86
2022/10/31 03:49:56;;;;;;;12.57;6.90;;;12.40;99.90;;;;;;4977937;28;20215;-86
2022/10/31 03:52:54;;;;;;;19.60;7.57;;;12.40;99.90;;;;;;4980590;28;20308;-87
2022/10/31 03:55:33;;;;;;;14.27;7.73;;;12.30;99.90;;;;;;4994040;28;20215;-88
2022/10/31 03:58:23;;;;;;;13.53;7.20;;;12.30;99.90;;;;;;5018815;28;20220;-87
2022/10/31 04:00:51;;;;;;;10.20;6.20;;;12.30;99.90;;;;;;5016142;28;20226;-88
2022/10/31 04:03:27;;;;;;;13.50;7.97;;;12.30;99.90;;;;;;5033545;28;20226;-87
2022/10/31 04:05:55;;;;;;;15.70;7.10;;;12.20;99.90;;;;;;5036639;28;20210;-86
2022/10/31 04:08:26;;;;;;;11.37;6.70;;;12.20;99.90;;;;;;5035553;28;20281;-86
2022/10/31 04:10:54;;;;;;;9.53;6.33;;;12.20;99.90;;;;;;5013765;28;20280;-86
2022/10/31 04:13:27;;;;;;;13.17;6.70;;;12.20;99.90;;;;;;5012676;28;20222;-86
2022/10/31 04:15:54;;;;;;;10.67;7.27;;;12.20;99.90;;;;;;5026602;28;20233;-88
2022/10/31 04:18:21;;;;;;;12.10;7.23;;;12.30;99.90;;;;;;5013810;28;20222;-89
2022/10/31 04:20:50;;;;;;;17.13;8.50;;;12.20;99.90;;;;;;5026938;28;20194;-87
2022/10/31 04:23:23;;;;;;;14.90;6.43;;;12.20;99.90;;;;;;5017395;28;20555;-85
2022/10/31 04:25:49;;;;;;;11.03;6.77;;;12.20;99.90;;;;;;5011234;28;20226;-86
2022/10/31 04:28:15;;;;;;;11.80;6.57;;;12.20;99.90;;;;;;5018443;28;20679;-86
2022/10/31 04:30:40;;;;;;;15.73;7.93;;;12.20;99.90;;;;;;5029812;28;20275;-86
2022/10/31 04:33:06;;;;;;;14.63;9.00;;;12.20;99.90;;;;;;5036600;28;20239;-88
2022/10/31 04:35:32;;;;;;;11.07;7.20;;;12.20;99.90;;;;;;5000505;28;20229;-88
2022/10/31 04:37:57;;;;;;;13.53;8.23;;;12.20;99.90;;;;;;4996870;28;20273;-87
2022/10/31 04:40:23;;;;;;;13.53;7.77;;;12.20;99.90;;;;;;5012234;28;20315;-87
2022/10/31 04:42:49;;;;;;;18.03;6.50;;;12.10;99.90;;;;;;4981080;28;20223;-87
2022/10/31 04:45:14;;;;;;;11.97;8.60;;;12.00;99.90;;;;;;5014483;28;20268;-87
2022/10/31 04:47:40;;;;;;;13.67;7.83;;;11.90;99.90;;;;;;5016354;28;20799;-85
2022/10/31 04:50:06;;;;;;;10.77;7.13;;;12.00;99.90;;;;;;5013724;28;20195;-85
2022/10/31 04:52:38;;;;;;;13.40;8.77;;;11.90;99.90;;;;;;5032867;28;20314;-88
2022/10/31 04:55:04;;;;;;;15.40;6.97;;;11.80;99.90;;;;;;5022004;28;20207;-88
2022/10/31 04:57:29;;;;;;;12.80;7.93;;;11.90;99.90;;;;;;4999577;28;20218;-88
2022/10/31 04:59:55;;;;;;;10.27;7.10;;;11.80;99.90;;;;;;4995158;28;20223;-88
2022/10/31 05:02:21;;;;;;;14.27;8.10;;;11.80;99.90;;;;;;5015432;28;20569;-87
2022/10/31 05:04:46;;;;;;;9.40;6.53;;;11.80;99.90;;;;;;4998002;28;20248;-87
2022/10/31 05:07:12;;;;;;;9.20;6.67;;;11.70;99.90;;;;;;5017215;28;20247;-88
2022/10/31 05:09:38;;;;;;;11.47;6.33;;;11.70;99.90;;;;;;4995438;28;20227;-86
2022/10/31 05:12:04;;;;;;;11.77;8.33;;;11.70;99.90;;;;;;5013367;28;20215;-86
2022/10/31 05:14:29;;;;;;;12.60;6.63;;;11.60;99.90;;;;;;4997150;28;21155;-88
2022/10/31 05:16:55;;;;;;;11.17;7.73;;;11.60;99.90;;;;;;5012221;28;20222;-86
2022/10/31 05:19:21;;;;;;;12.17;7.63;;;11.60;99.90;;;;;;5015136;28;20210;-87
2022/10/31 05:21:46;;;;;;;11.23;7.27;;;11.60;99.90;;;;;;5011047;28;20219;-88
2022/10/31 05:24:12;;;;;;;13.63;7.33;;;11.70;99.90;;;;;;4998755;28;20365;-88
2022/10/31 05:26:38;;;;;;;12.80;8.87;;;11.70;99.90;;;;;;5004223;28;20195;-89
2022/10/31 05:29:03;;;;;;;11.87;7.40;;;11.70;99.90;;;;;;5010353;28;20196;-86
2022/10/31 05:31:29;;;;;;;11.47;7.67;;;11.60;99.90;;;;;;4991273;28;20214;-89
2022/10/31 05:33:55;;;;;;;11.27;6.77;;;11.60;99.90;;;;;;5008101;28;20250;-87
2022/10/31 05:36:20;;;;;;;11.40;7.40;;;11.60;99.90;;;;;;4991257;28;20214;-87
2022/10/31 05:38:46;;;;;;;13.00;7.73;;;11.50;99.90;;;;;;4991008;28;20199;-86
2022/10/31 05:41:12;;;;;;;15.40;9.60;;;11.50;99.90;;;;;;4990822;28;20235;-88
2022/10/31 05:43:37;;;;;;;14.60;7.63;;;11.50;99.90;;;;;;5010827;28;20218;-89
2022/10/31 05:46:03;;;;;;;10.30;6.67;;;11.40;99.90;;;;;;5019777;28;20218;-88
2022/10/31 05:48:29;;;;;;;9.97;7.00;;;11.30;99.90;;;;;;4995549;28;20218;-88
2022/10/31 05:50:55;;;;;;;10.53;7.00;;;11.20;99.90;;;;;;5011435;28;20280;-88
2022/10/31 05:53:20;;;;;;;9.43;7.33;;;11.10;99.90;;;;;;5017056;28;20202;-89
2022/10/31 05:55:46;;;;;;;10.63;6.33;;;11.10;99.90;;;;;;5003008;28;20808;-95
2022/10/31 05:58:14;;;;;;;11.77;7.00;;;11.10;99.90;;;;;;5018385;28;20223;-96
2022/10/31 06:00:40;;;;;;;8.93;6.97;;;11.10;99.90;;;;;;5031101;28;20205;-95
2022/10/31 06:03:12;;;;;;;11.27;7.27;;;11.10;99.90;;;;;;5015184;28;20234;-96
2022/10/31 06:26:59;;;;;;;8.57;5.90;;;11.00;99.90;;;;;;5046057;28;20234;-91
2022/10/31 06:29:26;;;;;;;14.00;7.10;;;11.00;99.90;;;;;;4988773;28;20221;-95
2022/10/31 06:31:52;;;;;;;14.10;8.37;;;11.10;99.90;;;;;;5003000;28;20223;-93
2022/10/31 06:34:18;;;;;;;12.33;7.10;;;11.10;99.90;;;;;;4990850;28;20326;-92
2022/10/31 06:36:46;;;;;;;13.10;8.20;;;11.10;99.90;;;;;;5004451;28;20328;-91
2022/10/31 06:39:11;;;;;;;11.47;7.67;;;11.10;99.90;;;;;;5034879;28;20298;-93
2022/10/31 06:41:39;;;;;;;13.00;7.10;;;11.10;99.90;;;;;;5021255;28;20252;-93
2022/10/31 06:44:06;;;;;;;10.80;7.47;;;11.10;99.90;;;;;;5019383;28;20182;-93
2022/10/31 06:46:32;;;;;;;14.00;8.27;;;11.10;99.90;;;;;;5020491;28;20650;-93
2022/10/31 06:49:00;;;;;;;18.17;8.63;;;11.10;99.90;;;;;;5003959;28;20304;-93
2022/10/31 06:51:26;;;;;;;12.53;7.00;;;11.10;99.90;;;;;;5022528;28;20218;-92
2022/10/31 06:53:52;;;;;;;12.63;8.10;;;11.10;99.90;;;;;;5000956;28;20717;-93
2022/10/31 06:56:19;;;;;;;10.30;7.00;;;11.20;99.90;;;;;;5016896;28;20521;-91
2022/10/31 06:58:44;;;;;;;17.53;8.07;;;11.30;99.90;;;;;;5001420;28;20229;-91
2022/10/31 07:01:10;;;;;;;21.20;8.83;;;11.40;99.90;;;;;;4999852;28;20222;-91
2022/10/31 07:03:36;;;;;;;14.53;8.17;;;11.40;99.90;;;;;;5000348;28;20237;-91
2022/10/31 07:06:02;;;;;;;13.17;10.40;;;11.40;99.90;;;;;;5000589;28;20224;-91
2022/10/31 07:08:27;;;;;;;13.03;9.57;;;11.30;99.90;;;;;;5017661;28;20186;-91
2022/10/31 07:10:58;;;;;;;10.63;7.87;;;11.30;99.90;;;;;;5002309;28;20214;-90
2022/10/31 07:13:27;;;;;;;13.43;8.63;;;11.30;99.90;;;;;;5032122;28;20217;-92
2022/10/31 07:15:55;;;;;;;12.77;8.90;;;11.80;99.90;;;;;;5013678;28;20707;-92
2022/10/31 07:18:21;;;;;;;13.33;10.07;;;12.70;99.90;;;;;;5025483;28;20206;-92
2022/10/31 07:20:47;;;;;;;28.07;10.10;;;13.20;99.90;;;;;;5017699;28;20190;-92
2022/10/31 07:23:13;;;;;;;17.00;10.13;;;12.90;99.90;;;;;;5033733;28;20650;-92
2022/10/31 07:25:39;;;;;;;11.83;8.87;;;12.70;99.90;;;;;;5030232;28;20243;-90
2022/10/31 07:28:06;;;;;;;12.80;7.40;;;12.50;99.90;;;;;;5005482;28;20340;-91
2022/10/31 07:30:31;;;;;;;12.73;8.40;;;12.40;99.90;;;;;;5005303;28;20253;-92
2022/10/31 07:32:57;;;;;;;11.80;7.40;;;12.30;99.90;;;;;;5006288;28;20250;-90
2022/10/31 07:35:26;;;;;;;18.50;8.40;;;12.00;99.90;;;;;;5022966;28;20218;-91
2022/10/31 07:37:54;;;;;;;14.40;9.17;;;11.90;99.90;;;;;;5019234;28;20214;-91
2022/10/31 07:40:21;;;;;;;13.40;8.87;;;11.80;99.90;;;;;;5035545;28;20360;-91
2022/10/31 07:42:49;;;;;;;11.70;8.00;;;11.90;99.90;;;;;;5015568;28;20302;-91
2022/10/31 07:45:17;;;;;;;9.53;6.73;;;11.90;99.90;;;;;;5020134;28;20291;-91
2022/10/31 07:47:51;;;;;;;9.30;6.53;;;12.00;99.90;;;;;;5035737;28;20546;-90
2022/10/31 07:50:23;;;;;;;13.13;9.13;;;12.20;99.90;;;;;;5040326;28;20188;-90
2022/10/31 07:52:57;;;;;;;13.53;10.53;;;12.30;99.90;;;;;;5039373;28;20215;-91
2022/10/31 07:55:23;;;;;;;11.10;8.33;;;12.60;99.90;;;;;;5040596;28;20209;-90
2022/10/31 07:57:59;;;;;;;14.73;11.40;;;12.80;99.90;;;;;;5004008;28;20310;-91
2022/10/31 08:00:26;;;;;;;20.17;12.87;;;13.10;99.90;;;;;;5035600;28;20218;-91
2022/10/31 08:03:08;;;;;;;19.53;12.50;;;13.90;99.90;;;;;;5023096;28;20271;-93
2022/10/31 08:05:35;;;;;;;21.23;13.07;;;14.50;99.90;;;;;;5021301;28;20235;-91
2022/10/31 08:08:01;;;;;;;23.47;13.27;;;15.10;99.90;;;;;;4996703;28;20192;-91
2022/10/31 08:10:27;;;;;;;19.30;12.10;;;15.40;99.90;;;;;;5025486;28;20309;-90
2022/10/31 08:13:02;;;;;;;19.30;11.17;;;15.60;99.90;;;;;;5007687;28;20595;-92
2022/10/31 08:15:28;;;;;;;18.30;11.73;;;15.40;99.90;;;;;;5024339;28;20224;-92
2022/10/31 08:17:54;;;;;;;17.60;11.70;;;15.10;99.90;;;;;;5024842;28;20214;-91
2022/10/31 08:20:21;;;;;;;17.33;10.47;;;14.80;99.90;;;;;;5025529;28;20193;-90
2022/10/31 08:22:54;;;;;;;14.10;8.37;;;14.60;99.90;;;;;;5040042;28;20251;-91
2022/10/31 08:25:19;;;;;;;16.87;8.93;;;14.40;99.90;;;;;;5057727;28;20271;-90
2022/10/31 08:27:52;;;;;;;14.90;9.17;;;14.30;99.90;;;;;;5006759;28;20236;-90
2022/10/31 08:30:20;;;;;;;11.10;8.20;;;14.20;99.90;;;;;;5043748;28;20217;-91
2022/10/31 08:32:46;;;;;;;15.73;9.70;;;14.10;99.90;;;;;;5026102;28;20312;-90
2022/10/31 08:35:12;;;;;;;12.13;7.67;;;14.20;99.90;;;;;;5042022;28;20185;-90
2022/10/31 08:37:38;;;;;;;11.30;7.93;;;14.30;99.90;;;;;;5024413;28;20217;-90
2022/10/31 08:40:05;;;;;;;10.67;7.30;;;14.20;99.90;;;;;;5025887;28;20218;-91
2022/10/31 08:42:30;;;;;;;10.27;7.57;;;14.20;99.90;;;;;;5008622;28;20601;-89
2022/10/31 08:44:56;;;;;;;14.80;8.10;;;14.30;99.90;;;;;;5022790;28;20224;-90
2022/10/31 08:47:22;;;;;;;9.00;7.33;;;14.30;99.90;;;;;;5008504;28;20200;-90
2022/10/31 08:49:48;;;;;;;12.83;7.83;;;14.30;99.90;;;;;;5008558;28;20716;-90
2022/10/31 08:52:14;;;;;;;12.17;7.57;;;14.50;99.90;;;;;;5006413;28;20267;-90
2022/10/31 08:54:40;;;;;;;13.37;8.77;;;14.70;99.90;;;;;;5039128;28;20765;-91
2022/10/31 08:57:06;;;;;;;12.70;7.03;;;14.80;99.90;;;;;;5006892;28;20217;-92
2022/10/31 08:59:32;;;;;;;14.20;8.77;;;14.90;99.90;;;;;;5004913;28;20744;-91
2022/10/31 09:02:04;;;;;;;12.63;8.17;;;15.10;99.90;;;;;;5043638;28;20176;-92
2022/10/31 09:04:30;;;;;;;12.33;7.97;;;15.10;99.90;;;;;;5009609;28;20252;-91
2022/10/31 09:06:59;;;;;;;11.33;7.57;;;15.10;99.90;;;;;;5021190;28;20242;-92
2022/10/31 09:09:24;;;;;;;15.00;8.97;;;15.10;99.90;;;;;;5006532;28;20245;-91
2022/10/31 09:11:50;;;;;;;7.60;6.10;;;15.00;99.90;;;;;;5009217;28;20708;-92
2022/10/31 09:14:18;;;;;;;13.73;6.13;;;15.10;99.90;;;;;;5040943;28;20224;-91
2022/10/31 09:16:44;;;;;;;7.00;6.17;;;15.10;99.90;;;;;;5038513;28;20271;-91
2022/10/31 09:19:16;;;;;;;11.70;7.40;;;15.20;99.90;;;;;;5038274;28;20217;-92
2022/10/31 09:21:41;;;;;;;10.90;6.67;;;15.30;99.90;;;;;;5057774;28;20228;-91
2022/10/31 09:24:07;;;;;;;7.47;6.13;;;15.30;99.90;;;;;;5028297;28;20213;-92
2022/10/31 09:26:33;;;;;;;13.07;8.13;;;15.30;99.90;;;;;;5037975;28;20236;-91
2022/10/31 09:29:01;;;;;;;9.27;7.33;;;15.50;99.90;;;;;;5001829;28;20226;-90
2022/10/31 09:31:28;;;;;;;10.27;6.43;;;15.60;99.90;;;;;;5004042;28;20214;-90
2022/10/31 09:33:54;;;;;;;11.03;6.13;;;15.70;99.90;;;;;;4992764;28;20222;-91
2022/10/31 09:36:20;;;;;;;12.50;7.53;;;15.70;99.90;;;;;;5034585;28;20218;-91
2022/10/31 09:38:45;;;;;;;9.20;5.97;;;15.90;99.90;;;;;;5002145;28;20189;-92
2022/10/31 09:41:14;;;;;;;9.37;7.00;;;15.90;99.90;;;;;;5001552;28;20201;-91
2022/10/31 09:44:01;;;;;;;10.20;6.87;;;15.90;99.90;;;;;;5036476;28;20681;-91
2022/10/31 09:46:56;;;;;;;10.50;5.90;;;15.90;99.90;;;;;;5034393;28;20306;-91
2022/10/31 09:49:41;;;;;;;8.20;6.17;;;16.00;99.90;;;;;;5028559;28;20209;-89
2022/10/31 09:52:18;;;;;;;7.20;5.20;;;16.00;99.90;;;;;;5035797;28;21211;-89
2022/10/31 09:55:06;;;;;;;7.87;5.27;;;16.00;99.90;;;;;;5035350;28;20213;-91
2022/10/31 09:57:35;;;;;;;5.67;3.67;;;16.00;99.90;;;;;;5007032;28;20249;-89
2022/10/31 10:00:05;;;;;;;14.33;6.20;;;16.00;99.90;;;;;;5048778;28;20210;-89
2022/10/31 10:02:39;;;;;;;8.80;4.33;;;15.90;99.90;;;;;;5027977;28;20255;-88
2022/10/31 10:05:19;;;;;;;5.67;3.57;;;16.00;99.90;;;;;;5034188;28;20186;-89
2022/10/31 10:08:07;;;;;;;5.77;4.10;;;16.00;99.90;;;;;;5019398;28;21264;-90
2022/10/31 10:10:51;;;;;;;8.43;5.47;;;16.00;99.90;;;;;;5015274;28;20202;-89
2022/10/31 10:14:07;;;;;;;6.83;4.57;;;16.10;99.90;;;;;;5026999;28;20237;-88
2022/10/31 10:16:51;;;;;;;8.10;3.90;;;16.20;99.90;;;;;;5019384;28;20221;-88
2022/10/31 10:19:44;;;;;;;8.20;3.93;;;16.20;99.90;;;;;;5034262;28;20818;-89
2022/10/31 10:22:19;;;;;;;8.33;4.30;;;16.20;99.90;;;;;;5033552;28;20765;-90
2022/10/31 10:24:53;;;;;;;8.73;4.63;;;16.00;99.90;;;;;;5028475;28;20871;-90
2022/10/31 10:27:52;;;;;;;9.37;5.07;;;16.00;99.90;;;;;;5027753;28;20217;-89
2022/10/31 10:30:25;;;;;;;6.97;4.77;;;16.00;99.90;;;;;;5041657;28;20757;-89
2022/10/31 10:33:02;;;;;;;9.40;6.00;;;16.00;99.90;;;;;;5032349;28;20226;-90
2022/10/31 10:35:49;;;;;;;7.53;4.70;;;15.90;99.90;;;;;;5034479;28;20232;-89
2022/10/31 10:38:31;;;;;;;7.97;4.47;;;15.90;99.90;;;;;;5034306;28;20313;-88
2022/10/31 10:41:00;;;;;;;7.53;5.97;;;15.90;99.90;;;;;;5034626;28;20259;-89
2022/10/31 10:43:37;;;;;;;6.40;3.77;;;15.90;99.90;;;;;;5034436;28;20214;-88
2022/10/31 10:49:24;;;;;;;7.77;4.97;;;15.70;99.90;;;;;;5051325;28;20210;-89
2022/10/31 10:52:22;;;;;;;7.70;4.97;;;15.80;99.90;;;;;;5034132;28;20612;-90
2022/10/31 10:54:59;;;;;;;9.43;6.27;;;15.90;99.90;;;;;;5033715;28;20656;-90
2022/10/31 10:57:54;;;;;;;9.60;5.57;;;16.10;99.90;;;;;;5033589;28;20217;-90
2022/10/31 11:00:23;;;;;;;7.87;4.87;;;16.20;99.90;;;;;;5029269;28;20714;-88
2022/10/31 11:02:49;;;;;;;8.27;5.57;;;16.40;99.90;;;;;;5033171;28;20197;-89
2022/10/31 11:05:25;;;;;;;9.43;4.97;;;16.90;99.90;;;;;;5034761;28;20272;-89
2022/10/31 11:07:51;;;;;;;10.20;6.53;;;17.30;99.90;;;;;;5033878;28;20213;-88
2022/10/31 11:10:17;;;;;;;6.67;4.87;;;17.60;99.90;;;;;;5000106;28;20215;-88
2022/10/31 11:12:56;;;;;;;6.77;4.60;;;17.80;99.90;;;;;;5016866;28;20217;-88
2022/10/31 11:15:25;;;;;;;7.03;4.87;;;17.90;99.90;;;;;;5033101;28;20221;-88
2022/10/31 11:17:54;;;;;;;6.80;4.23;;;18.30;99.90;;;;;;5048784;28;20308;-89
2022/10/31 11:20:19;;;;;;;6.53;3.50;;;18.50;99.90;;;;;;5034055;28;20183;-89
2022/10/31 11:22:48;;;;;;;6.20;4.33;;;18.40;99.90;;;;;;5033018;28;20244;-89
2022/10/31 11:25:26;;;;;;;5.70;4.50;;;18.20;99.90;;;;;;5016850;28;20232;-88
2022/10/31 11:28:09;;;;;;;6.37;3.87;;;18.40;99.90;;;;;;5032000;28;20240;-89
2022/10/31 11:30:49;;;;;;;7.23;4.47;;;18.50;99.90;;;;;;5032424;28;20228;-87
2022/10/31 11:33:31;;;;;;;5.07;3.60;;;18.90;99.90;;;;;;5034265;28;20849;-90
2022/10/31 11:35:57;;;;;;;6.13;4.87;;;18.70;99.90;;;;;;5035103;28;20224;-88
2022/10/31 11:38:39;;;;;;;9.30;3.87;;;17.90;99.90;;;;;;5034011;28;20193;-88
2022/10/31 11:41:24;;;;;;;20.57;4.57;;;17.60;99.90;;;;;;5048823;28;20583;-88
2022/10/31 11:43:54;;;;;;;6.30;4.10;;;17.30;99.90;;;;;;5032777;28;20236;-90
2022/10/31 11:46:32;;;;;;;7.43;4.70;;;16.90;99.90;;;;;;5029359;28;20301;-91
2022/10/31 11:48:58;;;;;;;5.80;3.57;;;16.70;99.90;;;;;;5033523;28;20214;-89
2022/10/31 11:51:27;;;;;;;5.20;3.13;;;16.70;99.90;;;;;;5016416;28;20222;-87
2022/10/31 11:53:57;;;;;;;4.90;2.87;;;16.70;99.90;;;;;;5032189;28;20690;-90
2022/10/31 11:56:23;;;;;;;3.53;2.43;;;16.90;99.90;;;;;;5048707;28;20625;-88
2022/10/31 11:59:18;;;;;;;4.23;2.60;;;17.30;99.90;;;;;;5014237;28;20697;-88
2022/10/31 12:01:49;;;;;;;4.07;2.60;;;17.60;99.90;;;;;;5029926;28;20225;-89
2022/10/31 12:04:16;;;;;;;3.67;2.47;;;17.60;99.90;;;;;;5032666;28;20578;-88
2022/10/31 12:06:47;;;;;;;7.43;3.00;;;17.60;99.90;;;;;;5032728;28;20218;-91
2022/10/31 12:09:26;;;;;;;3.30;1.83;;;17.50;99.90;;;;;;5016598;28;20229;-91
2022/10/31 12:12:23;;;;;;;6.13;2.80;;;17.30;99.90;;;;;;5033356;28;20294;-87
2022/10/31 12:14:58;;;;;;;3.80;3.43;;;17.30;99.90;;;;;;5023205;28;20199;-87
2022/10/31 12:17:36;;;;;;;5.57;3.20;;;17.20;99.90;;;;;;5032574;28;20235;-88
2022/10/31 12:20:07;;;;;;;5.07;3.77;;;17.30;99.90;;;;;;5040656;28;20218;-88
2022/10/31 12:23:00;;;;;;;5.27;3.13;;;17.50;99.90;;;;;;5031377;28;20206;-88
2022/10/31 12:25:26;;;;;;;5.47;2.20;;;17.30;99.90;;;;;;5032387;28;20272;-89
2022/10/31 12:27:58;;;;;;;5.30;2.70;;;17.30;99.90;;;;;;5038955;28;20249;-89
2022/10/31 12:30:39;;;;;;;7.73;3.27;;;17.50;99.90;;;;;;5027732;28;20221;-89
2022/10/31 12:33:33;;;;;;;4.97;3.10;;;17.50;99.90;;;;;;5055388;28;20233;-89
2022/10/31 12:36:18;;;;;;;7.27;2.83;;;17.30;99.90;;;;;;4986504;28;20214;-88
2022/10/31 12:38:44;;;;;;;6.80;3.40;;;17.10;99.90;;;;;;5040221;28;20186;-89
2022/10/31 12:41:36;;;;;;;6.27;3.17;;;17.20;99.90;;;;;;5021375;28;20314;-87
2022/10/31 12:44:25;;;;;;;5.93;3.93;;;16.90;99.90;;;;;;5001414;28;20214;-89
2022/10/31 12:47:20;;;;;;;6.40;3.50;;;16.70;99.90;;;;;;5021807;28;20213;-89
2022/10/31 12:50:18;;;;;;;7.87;4.30;;;16.60;99.90;;;;;;5035166;28;20261;-89
2022/10/31 12:53:06;;;;;;;6.47;3.33;;;16.40;99.90;;;;;;5037996;28;20563;-89
2022/10/31 12:55:41;;;;;;;7.53;4.07;;;16.40;99.90;;;;;;4983456;28;20236;-89
2022/10/31 12:58:25;;;;;;;4.63;2.83;;;16.50;99.90;;;;;;5046736;28;20215;-88
2022/10/31 13:01:10;;;;;;;5.17;3.30;;;16.50;99.90;;;;;;5028250;28;20229;-89
2022/10/31 13:03:53;;;;;;;5.17;3.00;;;16.60;99.90;;;;;;5023637;28;20214;-90
2022/10/31 13:06:27;;;;;;;5.40;3.50;;;16.60;99.90;;;;;;5036326;28;20712;-90
2022/10/31 13:09:01;;;;;;;6.10;3.93;;;16.50;99.90;;;;;;5019374;28;20206;-90
2022/10/31 13:11:32;;;;;;;6.93;3.90;;;16.50;99.90;;;;;;5023786;28;20654;-91
2022/10/31 13:14:25;;;;;;;7.57;2.97;;;16.40;99.90;;;;;;5052682;28;20210;-88
2022/10/31 13:16:53;;;;;;;7.23;4.17;;;16.40;99.90;;;;;;5037714;28;20225;-89
2022/10/31 13:19:21;;;;;;;9.27;3.93;;;16.30;99.90;;;;;;5038830;28;20217;-89
2022/10/31 13:22:10;;;;;;;7.63;4.23;;;16.40;99.90;;;;;;5043230;28;20218;-88
2022/10/31 13:24:50;;;;;;;8.07;3.37;;;16.50;99.90;;;;;;5042009;28;20308;-90
2022/10/31 13:27:22;;;;;;;5.47;3.57;;;16.50;99.90;;;;;;5050820;28;20241;-86
2022/10/31 13:30:16;;;;;;;6.43;3.47;;;16.70;99.90;;;;;;5031061;28;20210;-89